Terminal Aerodrome Forecast
Issued by NWS Binghamton, NY

Home | Current Version | Previous Version | Text Only | Print | Product List | Glossary On
Versions: 1 2 3 4 5 6 7 8 9 10 11 12 13 14 15 16 17 18 19
322
FTUS41 KBGM 101720
TAFSYR
TAF
KSYR 101720Z 1018/1118 28006KT 6SM -SHSN OVC025
     FM102000 29005KT P6SM OVC035
     FM111300 21005KT P6SM BKN030=

USA.gov is the U.S. government's official web portal to all federal, state and local government web resources and services.